Albelo Primero — ECMU — position and weather

sailwx.info

Track history (hours):
 
Tides and Currents Weather Stations Pressure Air Temp Water Temp Dewpoint Dewpoint Depression Visibility Wind Speed Wind Dir Waves Ship Positions

Albelo Primero

Last reported at 2017-Aug-14 09:05 UTC. Time now 2017-Aug-22 03:25 UTC.
Position N 51°36' W 009°57'.

Length 32 m; draft 3.5 m.

Type: Fishing. MMSI: 225360000.

Date/timePositionNaut miles runAvg speedWind from/ knotsBaromVisibWave heightAir tempDewpointWater temp
2017-Aug-14 09:05N 51°36' W 009°57'3 0.6
2017-Aug-14 04:12N 51°38' W 009°55'210.1
2017-Aug-14 04:00N 51°37' W 009°56'13 9.0
2017-Aug-14 02:34N 51°34' W 010°16'  
2017-Aug-10 10:04N 51°37' W 010°45'310.0
2017-Aug-10 09:47N 51°35' W 010°42'3 9.9
2017-Aug-10 09:26N 51°33' W 010°38'4 9.8
2017-Aug-10 09:00N 51°29' W 010°33'5 9.7
2017-Aug-10 08:29N 51°26' W 010°28'5 9.8
2017-Aug-10 08:00N 51°23' W 010°22'5 9.9
2017-Aug-10 07:29N 51°19' W 010°16'5 9.8
2017-Aug-10 06:57N 51°16' W 010°10'5 9.5
2017-Aug-10 06:27N 51°12' W 010°05'  
Track history (hours):
 
Tides and Currents Weather Stations Pressure Air Temp Water Temp Dewpoint Dewpoint Depression Visibility Wind Speed Wind Dir Waves Ship Positions

Albelo Primero

Last reported at 2017-Aug-14 09:05 UTC. Time now 2017-Aug-22 03:25 UTC.
Position N 51°36' W 009°57'.

Length 32 m; draft 3.5 m.

Type: Fishing. MMSI: 225360000.

Date/timePositionNaut miles runAvg speedWind from/ knotsBaromVisibWave heightAir tempDewpointWater temp
2017-Aug-14 09:05N 51°36' W 009°57'3 0.6
2017-Aug-14 04:12N 51°38' W 009°55'210.1
2017-Aug-14 04:00N 51°37' W 009°56'13 9.0
2017-Aug-14 02:34N 51°34' W 010°16'  
2017-Aug-10 10:04N 51°37' W 010°45'310.0
2017-Aug-10 09:47N 51°35' W 010°42'3 9.9
2017-Aug-10 09:26N 51°33' W 010°38'4 9.8
2017-Aug-10 09:00N 51°29' W 010°33'5 9.7
2017-Aug-10 08:29N 51°26' W 010°28'5 9.8
2017-Aug-10 08:00N 51°23' W 010°22'5 9.9
2017-Aug-10 07:29N 51°19' W 010°16'5 9.8
2017-Aug-10 06:57N 51°16' W 010°10'5 9.5
2017-Aug-10 06:27N 51°12' W 010°05'  

Dump ship's entire track history